Airfield :
LOGIN :

Register | Disclaimer

   EN    FR    IT 

 










Legend :    VFR   Marginal VFR   IFR   Intensive IFR   Very Intensive IFR
Visi :
Ceiling :
>= 8 km
>= 3000ft
5 to 8 km
1000 to 3000 ft
1500m to 5 km
500 to 1000 ft
800 to 1500m
200 to 500 ft
< 800m
< 200 ft
Symbols :   Thunderstorms  Fog  Heavy snow  Heavy precipitations  Wind > 20 kt
SIGMETs :     Misc.  Thunderstorms  Icing  Turbulence  Mountain Waves  Volcanic Ashes






- Airport Elevation : 106 ft
- IATA code : XDA


LFBY - Dax Seyresse

CURRENT METAR :
  • 250830Z AUTO 11004KT 050V160 9999 // ////// 23/18 Q1011

EXPIRED METARs :
  • 250800Z AUTO VRB02KT 9999 // ////// 22/18 Q1011
  • 250730Z AUTO VRB02KT 9999 // ////// 21/19 Q1011
  • 250700Z AUTO VRB02KT 9999 // ////// 20/17 Q1011
  • 250630Z AUTO VRB03KT 9999 // ////// 18/17 Q1011
  • 250600Z AUTO VRB02KT 9999 // ////// 17/16 Q1011
  • 250530Z AUTO 14001KT 9999 // ////// 16/16 Q1011
  • 250500Z AUTO 13002KT 9999 // ////// 15/14 Q1011
  • 250430Z AUTO 00000KT 9999 // ////// 15/15 Q1011
  • 250400Z AUTO 00000KT 9999 // ////// 15/15 Q1011

Expired Forecast.



MET'MAP, your aeronautical weather chart ! - Copyright ORBIFLY December 2007 - Disclaimer

ORBIFLY MET'MAP TEAM :

Programming & Development : Alexandra Zaïnal
Original concept : Baudouin d'Aumeries
Technical & hardware support : Manuel Goepfert
Assistance : Marc-Olivier Méhu




SOURCES & CREDITS :

   NOAA